createdAt,value
2022-08-30T00:00:48.988Z,14.94
2022-08-30T00:01:48.976Z,14.93
2022-08-30T00:02:49.136Z,14.91
2022-08-30T00:03:49.037Z,14.87
2022-08-30T00:04:48.937Z,14.82
2022-08-30T00:05:48.925Z,14.83
2022-08-30T00:06:48.910Z,14.80
2022-08-30T00:07:48.897Z,14.77
2022-08-30T00:08:48.883Z,14.76
2022-08-30T00:09:48.875Z,14.75
2022-08-30T00:10:48.857Z,14.72
2022-08-30T00:11:48.846Z,14.75
2022-08-30T00:12:48.831Z,14.75
2022-08-30T00:13:48.822Z,14.70
2022-08-30T00:14:48.806Z,14.64
2022-08-30T00:15:48.865Z,14.54
2022-08-30T00:16:48.779Z,14.46
2022-08-30T00:17:48.767Z,14.43
2022-08-30T00:18:48.754Z,14.42
2022-08-30T00:19:48.745Z,14.42
2022-08-30T00:20:48.726Z,14.39
2022-08-30T00:21:48.714Z,14.33
2022-08-30T00:23:48.688Z,14.15
2022-08-30T00:24:48.673Z,14.10
2022-08-30T00:25:48.661Z,13.99
2022-08-30T00:26:48.647Z,13.95
2022-08-30T00:27:48.634Z,13.91
2022-08-30T00:28:48.620Z,13.88
2022-08-30T00:29:48.608Z,14.10
2022-08-30T00:30:48.673Z,14.28
2022-08-30T00:31:48.585Z,14.39
2022-08-30T00:32:48.568Z,14.43
2022-08-30T00:33:48.559Z,14.46
2022-08-30T00:34:48.541Z,14.50
2022-08-30T00:35:48.529Z,14.47
2022-08-30T00:36:48.516Z,14.46
2022-08-30T00:37:48.505Z,14.46
2022-08-30T00:38:48.489Z,14.45
2022-08-30T00:39:48.476Z,14.52
2022-08-30T00:40:48.532Z,14.51
2022-08-30T00:41:48.450Z,14.51
2022-08-30T00:42:50.749Z,14.47
2022-08-30T00:43:48.422Z,14.42
2022-08-30T00:44:48.409Z,14.37
2022-08-30T00:45:48.465Z,14.29
2022-08-30T00:46:48.384Z,14.22
2022-08-30T00:47:48.370Z,14.14
2022-08-30T00:48:48.356Z,14.02
2022-08-30T00:49:48.344Z,13.95
2022-08-30T00:50:48.331Z,13.91
2022-08-30T00:51:48.319Z,13.90
2022-08-30T00:52:48.304Z,13.86
2022-08-30T00:53:48.292Z,13.81
2022-08-30T00:54:48.277Z,13.81
2022-08-30T00:55:48.265Z,13.78
2022-08-30T00:56:48.250Z,13.68
2022-08-30T00:57:48.238Z,13.74
2022-08-30T00:58:48.229Z,13.81
2022-08-30T00:59:48.212Z,13.87
2022-08-30T01:00:48.196Z,13.94
2022-08-30T01:01:48.252Z,13.90
2022-08-30T01:02:48.235Z,13.94
2022-08-30T01:03:48.160Z,13.87
2022-08-30T01:04:48.145Z,13.87
2022-08-30T01:05:48.133Z,13.88
2022-08-30T01:06:48.119Z,13.83
2022-08-30T01:07:48.106Z,13.74
2022-08-30T01:08:48.092Z,13.69
2022-08-30T01:09:48.081Z,13.63
2022-08-30T01:10:48.066Z,13.58
2022-08-30T01:11:48.054Z,13.50
2022-08-30T01:12:48.040Z,13.47
2022-08-30T01:13:48.029Z,13.37
2022-08-30T01:14:48.013Z,13.29
2022-08-30T01:15:48.045Z,13.20
2022-08-30T01:16:47.987Z,13.17
2022-08-30T01:17:47.975Z,13.14
2022-08-30T01:18:47.960Z,13.05
2022-08-30T01:19:47.949Z,13.03
2022-08-30T01:20:47.935Z,12.97
2022-08-30T01:21:47.922Z,12.95
2022-08-30T01:22:47.908Z,13.00
2022-08-30T01:23:47.896Z,13.14
2022-08-30T01:24:47.885Z,13.40
2022-08-30T01:25:47.869Z,13.54
2022-08-30T01:26:47.855Z,13.69
2022-08-30T01:27:47.843Z,13.81
2022-08-30T01:28:47.830Z,13.81
2022-08-30T01:29:47.817Z,13.78
2022-08-30T01:30:47.866Z,13.80
2022-08-30T01:31:47.790Z,13.74
2022-08-30T01:32:47.775Z,13.68
2022-08-30T01:33:47.764Z,13.66
2022-08-30T01:34:47.750Z,13.66
2022-08-30T01:35:47.739Z,13.72
2022-08-30T01:36:47.723Z,13.70
2022-08-30T01:37:47.712Z,13.77
2022-08-30T01:38:47.698Z,13.74
2022-08-30T01:39:47.686Z,13.74
2022-08-30T01:40:47.671Z,13.68
2022-08-30T01:41:47.660Z,13.65
2022-08-30T01:42:47.645Z,13.62
2022-08-30T01:43:47.633Z,13.62
2022-08-30T01:44:47.618Z,13.59
2022-08-30T01:45:47.646Z,13.61
2022-08-30T01:46:47.602Z,13.61
2022-08-30T01:47:47.581Z,13.54
2022-08-30T01:48:54.135Z,13.59
2022-08-30T01:49:47.555Z,13.62
2022-08-30T01:50:47.540Z,13.63
2022-08-30T01:51:47.526Z,13.68
2022-08-30T01:52:47.514Z,13.66
2022-08-30T01:53:47.501Z,13.63
2022-08-30T01:54:47.487Z,13.61
2022-08-30T01:55:47.473Z,13.48
2022-08-30T01:56:47.471Z,13.48
2022-08-30T01:57:47.448Z,13.45
2022-08-30T01:58:47.435Z,13.47
2022-08-30T01:59:47.433Z,13.48
2022-08-30T02:00:47.410Z,13.45
2022-08-30T02:01:47.482Z,13.45
2022-08-30T02:02:47.384Z,13.43
2022-08-30T02:03:47.441Z,13.40
2022-08-30T02:04:47.355Z,13.40
2022-08-30T02:05:47.341Z,13.41
2022-08-30T02:06:47.330Z,13.45
2022-08-30T02:07:47.315Z,13.40
2022-08-30T02:08:47.303Z,13.43
2022-08-30T02:09:47.291Z,13.45
2022-08-30T02:10:47.277Z,13.40
2022-08-30T02:11:47.263Z,13.38
2022-08-30T02:12:47.251Z,13.35
2022-08-30T02:13:47.237Z,13.33
2022-08-30T02:14:47.225Z,13.32
2022-08-30T02:15:47.210Z,13.29
2022-08-30T02:16:47.229Z,13.29
2022-08-30T02:17:47.183Z,13.23
2022-08-30T02:18:47.185Z,13.29
2022-08-30T02:19:47.159Z,13.29
2022-08-30T02:20:47.145Z,13.38
2022-08-30T02:21:47.132Z,13.48
2022-08-30T02:22:49.281Z,13.47
2022-08-30T02:23:47.104Z,13.54
2022-08-30T02:24:47.092Z,13.59
2022-08-30T02:25:47.077Z,13.61
2022-08-30T02:26:47.066Z,13.68
2022-08-30T02:27:47.051Z,13.66
2022-08-30T02:28:50.035Z,13.65
2022-08-30T02:29:47.025Z,13.65
2022-08-30T02:30:47.068Z,13.63
2022-08-30T02:31:46.998Z,13.59
2022-08-30T02:32:46.986Z,13.54
2022-08-30T02:33:46.972Z,13.51
2022-08-30T02:34:46.960Z,13.50
2022-08-30T02:35:46.947Z,13.53
2022-08-30T02:36:46.933Z,13.54
2022-08-30T02:37:46.920Z,13.54
2022-08-30T02:38:46.908Z,13.54
2022-08-30T02:39:46.893Z,13.56
2022-08-30T02:40:46.939Z,13.53
2022-08-30T02:41:46.866Z,13.53
2022-08-30T02:42:46.854Z,13.50
2022-08-30T02:43:46.841Z,13.51
2022-08-30T02:44:46.832Z,13.56
2022-08-30T02:45:46.875Z,13.59
2022-08-30T02:46:46.801Z,13.56
2022-08-30T02:47:47.259Z,13.53
2022-08-30T02:48:46.785Z,13.50
2022-08-30T02:49:46.761Z,13.45
2022-08-30T02:50:46.749Z,13.47
2022-08-30T02:51:46.735Z,13.44
2022-08-30T02:52:48.139Z,13.44
2022-08-30T02:53:46.708Z,13.37
2022-08-30T02:54:46.696Z,13.30
2022-08-30T02:55:46.681Z,13.29
2022-08-30T02:56:46.669Z,13.26
2022-08-30T02:57:46.654Z,13.28
2022-08-30T02:58:46.642Z,13.25
2022-08-30T02:59:46.628Z,13.26
2022-08-30T03:00:46.670Z,13.26
2022-08-30T03:01:46.672Z,13.29
2022-08-30T03:02:46.590Z,13.35
2022-08-30T03:03:46.602Z,13.37
2022-08-30T03:04:46.564Z,13.40
2022-08-30T03:05:46.549Z,13.35
2022-08-30T03:06:46.545Z,13.32
2022-08-30T03:07:46.526Z,13.30
2022-08-30T03:08:46.515Z,13.25
2022-08-30T03:09:46.502Z,13.28
2022-08-30T03:10:46.484Z,13.26
2022-08-30T03:11:46.471Z,13.26
2022-08-30T03:12:46.459Z,13.25
2022-08-30T03:13:46.446Z,13.28
2022-08-30T03:14:46.437Z,13.28
2022-08-30T03:15:46.418Z,13.30
2022-08-30T03:16:46.482Z,13.25
2022-08-30T03:17:46.391Z,13.25
2022-08-30T03:18:46.379Z,13.23
2022-08-30T03:19:46.368Z,13.20
2022-08-30T03:20:54.219Z,13.17
2022-08-30T03:21:46.339Z,13.10
2022-08-30T03:22:46.326Z,13.07
2022-08-30T03:23:46.314Z,13.04
2022-08-30T03:24:46.300Z,13.00
2022-08-30T03:25:46.286Z,12.95
2022-08-30T03:26:46.753Z,12.93
2022-08-30T03:27:46.259Z,12.90
2022-08-30T03:28:46.247Z,12.82
2022-08-30T03:29:46.233Z,12.75
2022-08-30T03:30:46.221Z,12.72
2022-08-30T03:31:52.923Z,12.72
2022-08-30T03:32:46.201Z,12.68
2022-08-30T03:33:46.180Z,12.67
2022-08-30T03:34:46.167Z,12.70
2022-08-30T03:35:46.153Z,12.90
2022-08-30T03:36:46.142Z,13.08
2022-08-30T03:37:46.130Z,13.25
2022-08-30T03:38:46.116Z,13.40
2022-08-30T03:39:46.100Z,13.44
2022-08-30T03:40:46.185Z,13.47
2022-08-30T03:41:46.076Z,13.47
2022-08-30T03:42:46.063Z,13.47
2022-08-30T03:43:46.049Z,13.53
2022-08-30T03:44:46.037Z,13.53
2022-08-30T03:45:46.136Z,13.50
2022-08-30T03:46:46.012Z,13.47
2022-08-30T03:47:45.994Z,13.47
2022-08-30T03:48:45.984Z,13.41
2022-08-30T03:49:45.969Z,13.38
2022-08-30T03:50:45.958Z,13.30
2022-08-30T03:51:45.943Z,13.28
2022-08-30T03:52:45.934Z,13.23
2022-08-30T03:53:45.918Z,13.14
2022-08-30T03:54:45.904Z,13.11
2022-08-30T03:55:45.890Z,13.01
2022-08-30T03:56:45.878Z,12.92
2022-08-30T03:57:45.863Z,12.87
2022-08-30T03:58:45.852Z,12.85
2022-08-30T03:59:45.838Z,12.72
2022-08-30T04:00:45.906Z,12.68
2022-08-30T04:01:46.040Z,12.59
2022-08-30T04:02:45.799Z,12.55
2022-08-30T04:03:45.785Z,12.49
2022-08-30T04:04:45.773Z,12.48
2022-08-30T04:05:45.761Z,12.48
2022-08-30T04:06:45.747Z,12.52
2022-08-30T04:07:45.732Z,12.51
2022-08-30T04:08:45.721Z,12.51
2022-08-30T04:09:45.706Z,12.49
2022-08-30T04:10:45.694Z,12.41
2022-08-30T04:11:45.681Z,12.38
2022-08-30T04:12:49.525Z,12.38
2022-08-30T04:13:45.654Z,12.33
2022-08-30T04:14:45.644Z,12.34
2022-08-30T04:15:45.628Z,12.27
2022-08-30T04:16:45.695Z,12.22
2022-08-30T04:17:45.601Z,12.16
2022-08-30T04:18:45.590Z,12.15
2022-08-30T04:19:45.576Z,12.11
2022-08-30T04:20:45.564Z,12.06
2022-08-30T04:21:45.549Z,12.04
2022-08-30T04:22:45.578Z,12.01
2022-08-30T04:24:45.513Z,11.97
2022-08-30T04:25:45.496Z,12.00
2022-08-30T04:26:45.485Z,12.01
2022-08-30T04:27:45.494Z,12.16
2022-08-30T04:28:45.467Z,12.22
2022-08-30T04:29:45.458Z,12.20
2022-08-30T04:30:45.436Z,12.20
2022-08-30T04:31:45.626Z,12.19
2022-08-30T04:32:45.407Z,12.18
2022-08-30T04:33:45.392Z,12.19
2022-08-30T04:34:45.384Z,12.15
2022-08-30T04:35:45.367Z,12.12
2022-08-30T04:36:48.133Z,12.03
2022-08-30T04:37:45.339Z,12.08
2022-08-30T04:38:45.328Z,12.08
2022-08-30T04:39:45.314Z,12.20
2022-08-30T04:40:45.381Z,12.26
2022-08-30T04:41:45.288Z,12.30
2022-08-30T04:42:45.277Z,12.38
2022-08-30T04:43:45.262Z,12.40
2022-08-30T04:44:45.250Z,12.45
2022-08-30T04:45:45.276Z,12.48
2022-08-30T04:46:45.223Z,12.46
2022-08-30T04:47:45.209Z,12.46
2022-08-30T04:48:45.197Z,12.49
2022-08-30T04:49:45.186Z,12.48
2022-08-30T04:50:45.173Z,12.49
2022-08-30T04:51:45.157Z,12.46
2022-08-30T04:52:45.147Z,12.44
2022-08-30T04:53:45.131Z,12.46
2022-08-30T04:54:45.120Z,12.44
2022-08-30T04:55:45.105Z,12.44
2022-08-30T04:56:45.094Z,12.38
2022-08-30T04:57:45.079Z,12.38
2022-08-30T04:58:45.067Z,12.34
2022-08-30T04:59:45.053Z,12.31
2022-08-30T05:00:45.067Z,12.27
2022-08-30T05:01:46.108Z,12.26
2022-08-30T05:02:45.093Z,12.30
2022-08-30T05:03:45.000Z,12.37
2022-08-30T05:04:44.988Z,12.46
2022-08-30T05:05:44.974Z,12.51
2022-08-30T05:06:44.962Z,12.55
2022-08-30T05:07:44.948Z,12.59
2022-08-30T05:08:46.072Z,12.58
2022-08-30T05:09:44.921Z,12.61
2022-08-30T05:10:44.911Z,12.61
2022-08-30T05:11:44.895Z,12.65
2022-08-30T05:12:44.882Z,12.68
2022-08-30T05:13:44.868Z,12.64
2022-08-30T05:14:44.859Z,12.61
2022-08-30T05:15:44.841Z,12.61
2022-08-30T05:16:44.960Z,12.56
2022-08-30T05:17:44.816Z,12.59
2022-08-30T05:18:44.804Z,12.61
2022-08-30T05:19:44.789Z,12.61
2022-08-30T05:20:44.777Z,12.64
2022-08-30T05:21:44.763Z,12.58
2022-08-30T05:22:44.751Z,12.56
2022-08-30T05:23:44.735Z,12.52
2022-08-30T05:24:44.727Z,12.58
2022-08-30T05:25:44.710Z,12.61
2022-08-30T05:26:44.770Z,12.67
2022-08-30T05:27:44.689Z,12.74
2022-08-30T05:28:44.674Z,12.75
2022-08-30T05:29:44.660Z,12.83
2022-08-30T05:30:44.645Z,12.79
2022-08-30T05:31:44.688Z,12.79
2022-08-30T05:32:44.619Z,12.86
2022-08-30T05:33:44.609Z,12.93
2022-08-30T05:34:44.594Z,13.00
2022-08-30T05:35:44.578Z,12.97
2022-08-30T05:36:44.567Z,13.11
2022-08-30T05:37:44.558Z,13.38
2022-08-30T05:38:44.541Z,13.77
2022-08-30T05:39:51.199Z,14.12
2022-08-30T05:40:44.571Z,14.46
2022-08-30T05:41:44.514Z,14.93
2022-08-30T05:42:44.490Z,15.38
2022-08-30T05:43:44.473Z,15.89
2022-08-30T05:44:44.538Z,16.33
2022-08-30T05:45:44.446Z,16.70
2022-08-30T05:46:44.436Z,17.18
2022-08-30T05:47:44.420Z,17.63
2022-08-30T05:48:44.408Z,17.99
2022-08-30T05:49:44.394Z,17.77
2022-08-30T05:50:44.381Z,17.54
2022-08-30T05:51:44.367Z,16.93
2022-08-30T05:52:44.357Z,16.52
2022-08-30T05:53:44.343Z,16.51
2022-08-30T05:54:44.329Z,16.82
2022-08-30T05:55:44.327Z,17.36
2022-08-30T05:56:44.304Z,17.58
2022-08-30T05:57:44.289Z,17.33
2022-08-30T05:58:44.277Z,17.25
2022-08-30T05:59:44.263Z,17.61
2022-08-30T06:00:44.251Z,17.95
2022-08-30T06:01:44.329Z,18.33
2022-08-30T06:02:44.315Z,18.88
2022-08-30T06:03:44.210Z,19.46
2022-08-30T06:04:44.198Z,19.92
2022-08-30T06:05:44.254Z,20.43
2022-08-30T06:06:44.170Z,20.86
2022-08-30T06:07:44.163Z,20.91
2022-08-30T06:08:44.144Z,20.98
2022-08-30T06:09:44.132Z,20.39
2022-08-30T06:10:44.118Z,20.02
2022-08-30T06:11:44.107Z,20.20
2022-08-30T06:12:44.091Z,20.56
2022-08-30T06:13:44.080Z,20.75
2022-08-30T06:14:44.066Z,21.03
2022-08-30T06:15:44.110Z,21.56
2022-08-30T06:16:44.046Z,21.99
2022-08-30T06:17:44.027Z,22.29
2022-08-30T06:18:44.013Z,22.65
2022-08-30T06:19:44.001Z,22.94
2022-08-30T06:20:43.987Z,23.20
2022-08-30T06:21:43.976Z,23.53
2022-08-30T06:22:43.961Z,23.72
2022-08-30T06:23:43.949Z,23.97
2022-08-30T06:24:57.048Z,23.90
2022-08-30T06:25:43.923Z,24.06
2022-08-30T06:26:43.910Z,24.15
2022-08-30T06:27:43.898Z,24.08
2022-08-30T06:28:43.885Z,24.05
2022-08-30T06:29:43.873Z,24.25
2022-08-30T06:30:43.858Z,24.30
2022-08-30T06:31:43.909Z,24.68
2022-08-30T06:32:43.832Z,24.47
2022-08-30T06:33:43.821Z,24.20
2022-08-30T06:34:43.805Z,24.03
2022-08-30T06:35:58.147Z,24.06
2022-08-30T06:36:43.780Z,24.24
2022-08-30T06:37:43.768Z,24.15
2022-08-30T06:38:43.755Z,24.03
2022-08-30T06:39:43.743Z,24.09
2022-08-30T06:40:43.860Z,24.13
2022-08-30T06:41:43.718Z,24.58
2022-08-30T06:42:43.705Z,24.99
2022-08-30T06:43:48.706Z,24.58
2022-08-30T06:44:45.771Z,24.83
2022-08-30T06:45:43.667Z,25.05
2022-08-30T06:46:43.713Z,25.26
2022-08-30T06:47:44.888Z,24.58
2022-08-30T06:48:46.321Z,23.13
2022-08-30T06:49:43.616Z,22.29
2022-08-30T06:50:43.603Z,21.95
2022-08-30T06:51:44.151Z,22.23
2022-08-30T06:52:43.577Z,22.36
2022-08-30T06:53:43.566Z,22.35
2022-08-30T06:54:43.552Z,22.27
2022-08-30T06:55:43.715Z,22.48
2022-08-30T06:56:57.614Z,22.76
2022-08-30T06:57:45.518Z,23.19
2022-08-30T06:58:43.501Z,23.59
2022-08-30T06:59:43.491Z,23.53
2022-08-30T07:00:43.476Z,23.82
2022-08-30T07:01:43.609Z,24.22
2022-08-30T07:02:43.505Z,24.67
2022-08-30T07:03:43.438Z,25.20
2022-08-30T07:04:43.423Z,25.45
2022-08-30T07:05:43.413Z,25.50
2022-08-30T07:06:43.398Z,25.80
2022-08-30T07:07:43.388Z,25.87
2022-08-30T07:08:43.372Z,26.19
2022-08-30T07:09:43.391Z,26.29
2022-08-30T07:10:43.350Z,26.24
2022-08-30T07:11:43.338Z,25.95
2022-08-30T07:12:43.323Z,25.57
2022-08-30T07:13:43.313Z,25.37
2022-08-30T07:14:43.298Z,25.88
2022-08-30T07:15:43.320Z,26.32
2022-08-30T07:16:43.275Z,26.47
2022-08-30T07:17:43.263Z,26.13
2022-08-30T07:18:43.251Z,26.56
2022-08-30T07:19:43.239Z,26.46
2022-08-30T07:20:43.229Z,26.19
2022-08-30T07:21:43.215Z,26.14
2022-08-30T07:22:43.204Z,26.12
2022-08-30T07:23:43.191Z,26.09
2022-08-30T07:24:43.177Z,25.95
2022-08-30T07:25:43.164Z,26.27
2022-08-30T07:26:43.153Z,26.99
2022-08-30T07:27:43.141Z,26.83
2022-08-30T07:28:43.126Z,26.61
2022-08-30T07:29:43.116Z,26.38
2022-08-30T07:30:43.104Z,26.62
2022-08-30T07:31:43.089Z,26.22
2022-08-30T07:32:43.075Z,26.57
2022-08-30T07:33:43.064Z,26.88
2022-08-30T07:34:43.052Z,27.13
2022-08-30T07:35:43.039Z,27.18
2022-08-30T07:36:43.027Z,27.13
2022-08-30T07:37:43.013Z,27.28
2022-08-30T07:38:43.006Z,27.17
2022-08-30T07:39:47.556Z,27.34
2022-08-30T07:40:43.021Z,27.58
2022-08-30T07:41:42.969Z,28.21
2022-08-30T07:42:42.951Z,28.73
2022-08-30T07:43:42.940Z,29.08
2022-08-30T07:44:42.946Z,29.10
2022-08-30T07:45:42.913Z,29.33
2022-08-30T07:46:43.057Z,29.01
2022-08-30T07:47:42.888Z,29.04
2022-08-30T07:48:44.285Z,28.68
2022-08-30T07:49:42.862Z,28.61
2022-08-30T07:50:42.851Z,28.56
2022-08-30T07:51:42.839Z,28.58
2022-08-30T07:52:42.826Z,28.66
2022-08-30T07:53:42.814Z,28.33
2022-08-30T07:54:42.798Z,28.13
2022-08-30T07:55:42.790Z,27.95
2022-08-30T07:56:42.772Z,27.78
2022-08-30T07:57:42.762Z,27.68
2022-08-30T07:58:42.749Z,27.64
2022-08-30T07:59:42.743Z,27.34
2022-08-30T08:00:42.725Z,27.51
2022-08-30T08:01:42.784Z,27.65
2022-08-30T08:02:42.735Z,27.68
2022-08-30T08:03:42.689Z,27.84
2022-08-30T08:04:42.674Z,27.95
2022-08-30T08:05:42.662Z,28.10
2022-08-30T08:06:42.649Z,28.21
2022-08-30T08:07:42.637Z,28.62
2022-08-30T08:08:42.624Z,28.89
2022-08-30T08:09:42.612Z,28.96
2022-08-30T08:10:42.600Z,29.18
2022-08-30T08:11:42.588Z,29.22
2022-08-30T08:12:42.578Z,29.25
2022-08-30T08:13:53.304Z,28.99
2022-08-30T08:14:42.550Z,29.05
2022-08-30T08:15:42.628Z,28.86
2022-08-30T08:16:42.529Z,28.55
2022-08-30T08:17:42.515Z,28.46
2022-08-30T08:18:42.501Z,28.73
2022-08-30T08:19:42.490Z,29.08
2022-08-30T08:20:42.477Z,28.88
2022-08-30T08:21:42.469Z,28.66
2022-08-30T08:22:42.455Z,28.76
2022-08-30T08:23:42.442Z,28.80
2022-08-30T08:25:42.419Z,28.76
2022-08-30T08:26:45.523Z,29.01
2022-08-30T08:27:42.392Z,29.30
2022-08-30T08:28:42.378Z,29.63
2022-08-30T08:29:42.367Z,29.63
2022-08-30T08:30:46.336Z,29.95
2022-08-30T08:31:42.362Z,30.17
2022-08-30T08:32:42.331Z,30.41
2022-08-30T08:33:42.320Z,30.41
2022-08-30T08:34:42.311Z,30.78
2022-08-30T08:35:42.295Z,30.61
2022-08-30T08:36:42.281Z,30.50
2022-08-30T08:37:42.270Z,30.38
2022-08-30T08:38:42.266Z,30.72
2022-08-30T08:39:42.251Z,30.90
2022-08-30T08:40:42.333Z,31.21
2022-08-30T08:41:42.224Z,31.11
2022-08-30T08:42:42.212Z,31.19
2022-08-30T08:43:42.199Z,31.63
2022-08-30T08:44:42.242Z,31.94
2022-08-30T08:45:42.176Z,32.18
2022-08-30T08:46:45.424Z,31.90
2022-08-30T08:47:42.159Z,31.84
2022-08-30T08:48:58.967Z,32.03
2022-08-30T08:49:44.125Z,31.47
2022-08-30T08:50:42.113Z,31.23
2022-08-30T08:51:42.100Z,31.62
2022-08-30T08:52:42.086Z,31.70
2022-08-30T08:53:46.444Z,31.68
2022-08-30T08:54:42.061Z,32.20
2022-08-30T08:55:42.116Z,32.24
2022-08-30T08:56:42.038Z,31.80
2022-08-30T08:57:42.031Z,31.47
2022-08-30T08:58:42.014Z,31.36
2022-08-30T08:59:42.006Z,31.63
2022-08-30T09:00:41.993Z,31.73
2022-08-30T09:01:42.076Z,31.84
2022-08-30T09:02:41.969Z,32.22
2022-08-30T09:03:41.959Z,32.18
2022-08-30T09:04:41.998Z,32.82
2022-08-30T09:05:41.935Z,32.55
2022-08-30T09:06:45.155Z,32.07
2022-08-30T09:07:41.912Z,32.34
2022-08-30T09:08:41.900Z,32.20
2022-08-30T09:09:41.890Z,32.36
2022-08-30T09:10:50.727Z,32.20
2022-08-30T09:11:44.380Z,32.46
2022-08-30T09:12:41.854Z,32.46
2022-08-30T09:13:41.843Z,32.28
2022-08-30T09:14:45.990Z,32.75
2022-08-30T09:15:41.969Z,33.22
2022-08-30T09:16:41.809Z,33.53
2022-08-30T09:17:41.798Z,33.68
2022-08-30T09:18:41.826Z,33.44
2022-08-30T09:19:41.772Z,33.60
2022-08-30T09:20:41.760Z,34.00
2022-08-30T09:21:41.751Z,34.35
2022-08-30T09:22:41.737Z,34.50
2022-08-30T09:23:41.728Z,34.44
2022-08-30T09:24:41.717Z,34.86
2022-08-30T09:25:41.782Z,34.99
2022-08-30T09:26:41.692Z,34.83
2022-08-30T09:27:41.681Z,34.31
2022-08-30T09:28:41.669Z,34.09
2022-08-30T09:29:41.659Z,34.31
2022-08-30T09:30:41.671Z,34.27
2022-08-30T09:31:41.635Z,34.10
2022-08-30T09:32:41.621Z,33.46
2022-08-30T09:33:41.614Z,33.07
2022-08-30T09:34:41.598Z,33.12
2022-08-30T09:35:41.587Z,33.30
2022-08-30T09:36:41.576Z,33.81
2022-08-30T09:37:41.566Z,33.97
2022-08-30T09:38:41.553Z,33.44
2022-08-30T09:39:41.542Z,33.40
2022-08-30T09:40:41.654Z,33.64
2022-08-30T09:41:41.521Z,34.16
2022-08-30T09:42:41.505Z,34.15
2022-08-30T09:43:41.494Z,34.25
2022-08-30T09:44:41.484Z,34.39
2022-08-30T09:45:41.473Z,34.12
2022-08-30T09:46:41.503Z,33.89
2022-08-30T09:47:41.455Z,34.13
2022-08-30T09:48:41.437Z,34.34
2022-08-30T09:49:41.427Z,34.40
2022-08-30T09:50:42.292Z,34.44
2022-08-30T09:51:41.404Z,33.23
2022-08-30T09:52:41.390Z,32.97
2022-08-30T09:53:50.970Z,33.00
2022-08-30T09:54:41.368Z,33.01
2022-08-30T09:55:41.358Z,33.81
2022-08-30T09:56:41.345Z,34.15
2022-08-30T09:57:41.335Z,34.03
2022-08-30T09:58:41.320Z,34.03
2022-08-30T09:59:41.312Z,33.86
2022-08-30T10:00:41.298Z,34.05
2022-08-30T10:01:41.339Z,34.13
2022-08-30T10:02:41.274Z,34.27
2022-08-30T10:03:41.269Z,34.54
2022-08-30T10:04:41.301Z,35.13
2022-08-30T10:05:41.242Z,35.45
2022-08-30T10:06:42.039Z,35.25
2022-08-30T10:07:41.221Z,34.77
2022-08-30T10:08:41.208Z,34.79
2022-08-30T10:09:41.199Z,34.91
2022-08-30T10:10:45.669Z,34.95
2022-08-30T10:11:41.175Z,34.13
2022-08-30T10:12:41.163Z,34.12
2022-08-30T10:13:41.153Z,33.97
2022-08-30T10:14:41.140Z,34.24
2022-08-30T10:15:41.132Z,34.32
2022-08-30T10:16:41.120Z,33.71
2022-08-30T10:17:41.110Z,33.89
2022-08-30T10:18:41.097Z,34.44
2022-08-30T10:19:41.089Z,35.02
2022-08-30T10:20:41.078Z,35.14
2022-08-30T10:21:41.069Z,34.83
2022-08-30T10:22:41.801Z,35.01
2022-08-30T10:23:41.042Z,34.84
2022-08-30T10:24:41.034Z,35.14
2022-08-30T10:25:41.024Z,35.43
2022-08-30T10:26:41.015Z,34.96
2022-08-30T10:27:41.006Z,35.03
2022-08-30T10:28:40.993Z,34.68
2022-08-30T10:29:42.458Z,34.72
2022-08-30T10:30:40.977Z,35.03
2022-08-30T10:31:42.958Z,35.10
2022-08-30T10:32:40.949Z,34.28
2022-08-30T10:33:40.935Z,34.42
2022-08-30T10:34:40.926Z,34.66
2022-08-30T10:35:40.921Z,34.87
2022-08-30T10:36:40.904Z,35.32
2022-08-30T10:37:40.889Z,35.81
2022-08-30T10:38:40.885Z,36.11
2022-08-30T10:39:40.865Z,35.94
2022-08-30T10:40:40.882Z,35.44
2022-08-30T10:41:40.846Z,35.41
2022-08-30T10:42:40.835Z,35.41
2022-08-30T10:43:40.819Z,35.77
2022-08-30T10:44:41.337Z,36.33
2022-08-30T10:45:40.799Z,36.53
2022-08-30T10:46:40.789Z,36.21
2022-08-30T10:47:40.774Z,35.81
2022-08-30T10:48:40.767Z,35.75
2022-08-30T10:49:40.882Z,35.44
2022-08-30T10:50:41.252Z,35.33
2022-08-30T10:51:40.732Z,35.63
2022-08-30T10:52:40.720Z,35.93
2022-08-30T10:53:40.710Z,36.15
2022-08-30T10:54:40.703Z,36.45
2022-08-30T10:55:40.690Z,36.59
2022-08-30T10:56:40.683Z,36.61
2022-08-30T10:57:43.022Z,36.67
2022-08-30T10:58:40.655Z,36.53
2022-08-30T10:59:40.643Z,36.22
2022-08-30T11:00:40.633Z,36.30
2022-08-30T11:01:46.647Z,36.28
2022-08-30T11:02:40.611Z,35.94
2022-08-30T11:03:40.598Z,35.81
2022-08-30T11:04:40.590Z,35.78
2022-08-30T11:05:40.725Z,35.82
2022-08-30T11:06:40.568Z,35.72
2022-08-30T11:07:40.556Z,36.11
2022-08-30T11:08:40.545Z,36.67
2022-08-30T11:09:40.533Z,37.28
2022-08-30T11:10:40.522Z,37.50
2022-08-30T11:12:40.500Z,38.05
2022-08-30T11:13:40.489Z,37.95
2022-08-30T11:14:40.479Z,37.50
2022-08-30T11:15:40.466Z,37.18
2022-08-30T11:16:40.457Z,37.31
2022-08-30T11:17:40.444Z,37.05
2022-08-30T11:18:40.439Z,37.20
2022-08-30T11:19:40.846Z,36.88
2022-08-30T11:20:40.417Z,36.24
2022-08-30T11:21:40.404Z,36.37
2022-08-30T11:22:40.393Z,36.22
2022-08-30T11:23:40.382Z,36.19
2022-08-30T11:24:40.373Z,35.63
2022-08-30T11:25:40.359Z,35.66
2022-08-30T11:26:40.350Z,35.85
2022-08-30T11:27:40.338Z,35.89
2022-08-30T11:28:40.328Z,36.00
2022-08-30T11:29:40.315Z,35.85
2022-08-30T11:30:40.306Z,36.46
2022-08-30T11:31:40.651Z,36.84
2022-08-30T11:32:40.282Z,37.21
2022-08-30T11:33:40.266Z,37.84
2022-08-30T11:34:40.257Z,37.36
2022-08-30T11:35:47.330Z,36.84
2022-08-30T11:36:46.006Z,36.55
2022-08-30T11:37:40.220Z,37.00
2022-08-30T11:38:40.216Z,37.13
2022-08-30T11:39:40.197Z,37.34
2022-08-30T11:40:40.186Z,36.93
2022-08-30T11:41:42.605Z,36.77
2022-08-30T11:43:40.399Z,37.20
2022-08-30T11:44:40.142Z,37.29
2022-08-30T11:45:40.190Z,37.39
2022-08-30T11:46:40.140Z,36.72
2022-08-30T11:47:40.111Z,35.75
2022-08-30T11:48:40.097Z,35.85
2022-08-30T11:49:42.082Z,36.58
2022-08-30T11:50:40.073Z,37.31
2022-08-30T11:51:40.060Z,36.64
2022-08-30T11:52:40.049Z,37.07
2022-08-30T11:53:40.036Z,37.05
2022-08-30T11:54:40.023Z,37.43
2022-08-30T11:55:40.010Z,37.88
2022-08-30T11:56:40.002Z,37.97
2022-08-30T11:57:39.989Z,38.60
2022-08-30T11:58:39.978Z,38.52
2022-08-30T11:59:39.963Z,38.90
2022-08-30T12:00:40.846Z,38.57
2022-08-30T12:01:49.794Z,37.99
2022-08-30T12:02:42.057Z,37.81
2022-08-30T12:03:40.084Z,38.10
2022-08-30T12:04:39.907Z,37.78
2022-08-30T12:05:39.894Z,38.00
2022-08-30T12:06:39.883Z,37.92
2022-08-30T12:07:39.926Z,38.14
2022-08-30T12:08:39.859Z,38.42
2022-08-30T12:09:39.847Z,38.63
2022-08-30T12:10:39.836Z,36.85
2022-08-30T12:11:39.825Z,36.50
2022-08-30T12:12:39.813Z,36.56
2022-08-30T12:13:39.799Z,35.99
2022-08-30T12:14:41.190Z,36.55
2022-08-30T12:15:39.776Z,36.50
2022-08-30T12:16:39.824Z,35.62
2022-08-30T12:17:39.753Z,35.81
2022-08-30T12:18:40.709Z,36.30
2022-08-30T12:19:41.352Z,36.91
2022-08-30T12:20:39.719Z,37.10
2022-08-30T12:21:44.020Z,36.42
2022-08-30T12:22:39.698Z,36.00
2022-08-30T12:23:44.672Z,36.15
2022-08-30T12:24:39.675Z,36.01
2022-08-30T12:26:39.653Z,35.87
2022-08-30T12:27:39.640Z,36.43
2022-08-30T12:28:42.137Z,37.28
2022-08-30T12:29:39.618Z,37.77
2022-08-30T12:30:39.619Z,37.37
2022-08-30T12:31:39.666Z,37.85
2022-08-30T12:32:39.587Z,37.85
2022-08-30T12:33:41.356Z,37.78
2022-08-30T12:34:39.561Z,38.21
2022-08-30T12:35:39.548Z,38.69
2022-08-30T12:36:39.551Z,38.75
2022-08-30T12:37:41.427Z,39.24
2022-08-30T12:38:39.519Z,39.10
2022-08-30T12:39:39.504Z,39.21
2022-08-30T12:40:39.574Z,38.68
2022-08-30T12:41:43.334Z,38.42
2022-08-30T12:42:39.482Z,37.25
2022-08-30T12:43:41.303Z,37.24
2022-08-30T12:44:39.453Z,37.24
2022-08-30T12:45:39.580Z,36.75
2022-08-30T12:46:39.431Z,36.87
2022-08-30T12:47:39.427Z,37.37
2022-08-30T12:48:39.410Z,37.71
2022-08-30T12:49:39.399Z,38.12
2022-08-30T12:50:39.390Z,38.79
2022-08-30T12:51:39.378Z,39.34
2022-08-30T12:52:39.368Z,39.63
2022-08-30T12:53:39.381Z,39.77
2022-08-30T12:54:39.346Z,40.01
2022-08-30T12:55:39.336Z,39.62
2022-08-30T12:56:49.585Z,39.34
2022-08-30T12:57:41.315Z,39.46
2022-08-30T12:58:39.305Z,39.46